Time;durP1;ratioP1;P1;durP2;ratioP2;P2;SDS_P1;SDS_P2;PMS_P1;PMS_P2;Temp;Humidity;BMP_temperature;BMP_pressure;BME280_temperature;BME280_humidity;BME280_pressure;Samples;Min_cycle;Max_cycle;Signal;HPM_P1;HPM_P2
2022/03/12 00:02:20;;;;;;;10.98;6.32;;;;;;;;;;5028024;28;20049;-77
2022/03/12 00:04:46;;;;;;;10.90;6.40;;;;;;;;;;5010677;28;20064;-75
2022/03/12 00:07:14;;;;;;;10.63;6.20;;;;;;;;;;5027668;28;20038;-75
2022/03/12 00:09:40;;;;;;;13.23;6.28;;;;;;;;;;5010725;28;20557;-75
2022/03/12 00:12:07;;;;;;;11.75;6.63;;;;;;;;;;5028126;28;20090;-75
2022/03/12 00:14:34;;;;;;;13.45;6.00;;;;;;;;;;5010373;28;20481;-75
2022/03/12 00:17:00;;;;;;;11.02;6.15;;;;;;;;;;5028226;28;20510;-76
2022/03/12 00:19:27;;;;;;;10.07;6.00;;;;;;;;;;5027793;28;20799;-82
2022/03/12 00:21:54;;;;;;;13.35;6.55;;;;;;;;;;5027434;28;20037;-75
2022/03/12 00:24:26;;;;;;;11.45;6.60;;;;;;;;;;4993442;28;20045;-74
2022/03/12 00:26:52;;;;;;;10.15;6.20;;;;;;;;;;5009626;28;20083;-76
2022/03/12 00:29:20;;;;;;;13.18;6.30;;;;;;;;;;5027313;28;20542;-75
2022/03/12 00:31:47;;;;;;;11.00;6.25;;;;;;;;;;5010262;28;20491;-75
2022/03/12 00:34:14;;;;;;;12.65;6.28;;;;;;;;;;5019434;28;20124;-75
2022/03/12 00:36:40;;;;;;;13.77;5.93;;;;;;;;;;5010028;28;20042;-76
2022/03/12 00:39:09;;;;;;;11.90;6.53;;;;;;;;;;4993495;28;20040;-76
2022/03/12 00:41:36;;;;;;;10.35;5.93;;;;;;;;;;5009632;28;20042;-76
2022/03/12 00:44:03;;;;;;;12.43;5.88;;;;;;;;;;5027678;28;20108;-76
2022/03/12 00:46:29;;;;;;;12.63;6.55;;;;;;;;;;5027155;28;20049;-75
2022/03/12 00:48:55;;;;;;;10.90;6.35;;;;;;;;;;4993505;28;20042;-75
2022/03/12 00:51:21;;;;;;;10.23;6.22;;;;;;;;;;5009670;28;20483;-77
2022/03/12 00:53:47;;;;;;;12.02;6.03;;;;;;;;;;5009936;28;20159;-75
2022/03/12 00:56:13;;;;;;;9.88;5.55;;;;;;;;;;5009363;28;20094;-75
2022/03/12 00:58:45;;;;;;;10.63;6.10;;;;;;;;;;5009771;28;20033;-75
2022/03/12 01:01:11;;;;;;;9.98;6.32;;;;;;;;;;5009580;28;20045;-75
2022/03/12 01:03:38;;;;;;;8.98;5.65;;;;;;;;;;5026945;28;20071;-75
2022/03/12 01:06:05;;;;;;;12.75;6.13;;;;;;;;;;5008630;28;20570;-76
2022/03/12 01:08:32;;;;;;;11.10;6.28;;;;;;;;;;5009400;28;20106;-76
2022/03/12 01:10:59;;;;;;;12.38;5.78;;;;;;;;;;5027248;28;20044;-76
2022/03/12 01:13:27;;;;;;;11.13;6.47;;;;;;;;;;5009105;28;20101;-76
2022/03/12 01:15:53;;;;;;;10.65;5.63;;;;;;;;;;5007504;28;20395;-75
2022/03/12 01:18:20;;;;;;;12.70;6.05;;;;;;;;;;5009152;28;20037;-75
2022/03/12 01:20:46;;;;;;;12.45;6.38;;;;;;;;;;5009414;28;20061;-75
2022/03/12 01:23:14;;;;;;;12.57;6.45;;;;;;;;;;5009018;28;20133;-76
2022/03/12 01:25:41;;;;;;;10.48;5.78;;;;;;;;;;5008894;28;20185;-76
2022/03/12 01:28:08;;;;;;;11.95;6.13;;;;;;;;;;5027502;28;20346;-76
2022/03/12 01:30:35;;;;;;;12.98;7.03;;;;;;;;;;5008826;28;20037;-76
2022/03/12 01:33:01;;;;;;;11.38;5.82;;;;;;;;;;5008535;28;20041;-76
2022/03/12 01:35:27;;;;;;;9.90;5.85;;;;;;;;;;5026121;28;20371;-77
2022/03/12 01:37:53;;;;;;;10.52;5.70;;;;;;;;;;5008425;28;20048;-74
2022/03/12 01:40:20;;;;;;;12.43;6.53;;;;;;;;;;4992184;28;20037;-75
2022/03/12 01:42:46;;;;;;;12.15;6.47;;;;;;;;;;5027057;28;20110;-75
2022/03/12 01:45:13;;;;;;;10.57;6.30;;;;;;;;;;5008814;28;20132;-76
2022/03/12 01:47:40;;;;;;;10.00;5.90;;;;;;;;;;4992527;28;20046;-74
2022/03/12 01:50:07;;;;;;;13.52;6.53;;;;;;;;;;5026629;28;20045;-75
2022/03/12 01:52:33;;;;;;;11.95;5.82;;;;;;;;;;5007986;28;20441;-78
2022/03/12 01:54:59;;;;;;;12.40;6.60;;;;;;;;;;5008692;28;20038;-74
2022/03/12 01:57:25;;;;;;;15.27;6.78;;;;;;;;;;5026644;28;20045;-74
2022/03/12 01:59:52;;;;;;;9.95;6.13;;;;;;;;;;5027279;28;20114;-76
2022/03/12 02:02:18;;;;;;;13.35;6.38;;;;;;;;;;5008948;28;20046;-76
2022/03/12 02:04:51;;;;;;;11.85;6.82;;;;;;;;;;4992652;28;20124;-75
2022/03/12 02:07:18;;;;;;;13.05;6.60;;;;;;;;;;5008054;28;20052;-75
2022/03/12 02:09:44;;;;;;;12.60;6.40;;;;;;;;;;5026316;28;20071;-73
2022/03/12 02:12:11;;;;;;;13.68;6.63;;;;;;;;;;5008379;28;20085;-74
2022/03/12 02:14:38;;;;;;;12.98;6.05;;;;;;;;;;4992516;28;20046;-76
2022/03/12 02:17:10;;;;;;;10.90;6.03;;;;;;;;;;5009627;28;20052;-77
2022/03/12 02:19:38;;;;;;;11.25;5.80;;;;;;;;;;5012149;28;20171;-75
2022/03/12 02:22:04;;;;;;;13.43;6.25;;;;;;;;;;5011876;28;20042;-75
2022/03/12 02:24:32;;;;;;;13.93;6.50;;;;;;;;;;5011372;28;20066;-74
2022/03/12 02:26:58;;;;;;;11.02;6.35;;;;;;;;;;4995157;28;20037;-74
2022/03/12 02:29:25;;;;;;;11.93;6.18;;;;;;;;;;5029854;28;20482;-75
2022/03/12 02:32:00;;;;;;;11.65;6.00;;;;;;;;;;5029768;28;20034;-74
2022/03/12 02:34:38;;;;;;;13.95;6.57;;;;;;;;;;5010234;28;20501;-74
2022/03/12 02:37:05;;;;;;;11.52;6.45;;;;;;;;;;5029094;28;20046;-77
2022/03/12 02:39:34;;;;;;;12.13;6.47;;;;;;;;;;5011084;28;20042;-74
2022/03/12 02:42:00;;;;;;;14.00;6.68;;;;;;;;;;5011604;28;20089;-76
2022/03/12 02:44:28;;;;;;;10.93;6.50;;;;;;;;;;4995428;28;20066;-76
2022/03/12 02:47:16;;;;;;;14.18;6.40;;;;;;;;;;5029349;28;20037;-76
2022/03/12 02:49:49;;;;;;;12.73;6.07;;;;;;;;;;5011632;28;20037;-75
2022/03/12 02:52:15;;;;;;;11.48;6.20;;;;;;;;;;5020080;28;20061;-75
2022/03/12 02:54:42;;;;;;;12.20;6.43;;;;;;;;;;5011252;28;20061;-74
2022/03/12 02:57:12;;;;;;;19.75;6.95;;;;;;;;;;4995630;28;20427;-75
2022/03/12 02:59:39;;;;;;;12.88;6.47;;;;;;;;;;5009256;28;20064;-75
2022/03/12 03:02:07;;;;;;;12.85;6.90;;;;;;;;;;5011582;28;20080;-76
2022/03/12 03:04:34;;;;;;;11.48;6.18;;;;;;;;;;5011371;28;20472;-76
2022/03/12 03:07:02;;;;;;;12.23;6.30;;;;;;;;;;5011417;28;20490;-76
2022/03/12 03:09:28;;;;;;;14.30;6.90;;;;;;;;;;5011993;28;20106;-76
2022/03/12 03:11:55;;;;;;;12.55;6.75;;;;;;;;;;5011265;28;20041;-76
2022/03/12 03:14:26;;;;;;;10.98;6.43;;;;;;;;;;5028989;28;20116;-75
2022/03/12 03:16:53;;;;;;;10.50;6.72;;;;;;;;;;5011386;28;20114;-76
2022/03/12 03:19:26;;;;;;;13.00;6.70;;;;;;;;;;5028232;28;20547;-75
2022/03/12 03:21:53;;;;;;;13.20;6.40;;;;;;;;;;5011704;28;20658;-75
2022/03/12 03:24:19;;;;;;;13.57;6.55;;;;;;;;;;5028555;28;20034;-75
2022/03/12 03:26:45;;;;;;;12.13;6.93;;;;;;;;;;5010879;28;20513;-75
2022/03/12 03:29:13;;;;;;;12.38;6.25;;;;;;;;;;5028391;28;20044;-76
2022/03/12 03:31:39;;;;;;;11.57;6.50;;;;;;;;;;5010923;28;20046;-77
2022/03/12 03:34:05;;;;;;;13.95;7.15;;;;;;;;;;5029030;28;20069;-77
2022/03/12 03:36:31;;;;;;;11.95;6.90;;;;;;;;;;5063076;28;20041;-76
2022/03/12 03:38:58;;;;;;;10.68;7.28;;;;;;;;;;5028787;28;20038;-77
2022/03/12 03:41:24;;;;;;;13.40;7.05;;;;;;;;;;4994402;28;20033;-78
2022/03/12 03:43:52;;;;;;;12.25;7.25;;;;;;;;;;5010482;28;20116;-76
2022/03/12 03:46:20;;;;;;;10.82;6.13;;;;;;;;;;5009843;28;20053;-77
2022/03/12 03:48:47;;;;;;;12.45;6.95;;;;;;;;;;5010856;28;20541;-76
2022/03/12 03:51:13;;;;;;;10.98;6.82;;;;;;;;;;5028222;28;20038;-76
2022/03/12 03:53:40;;;;;;;13.60;7.20;;;;;;;;;;5010358;28;20501;-75
2022/03/12 03:56:06;;;;;;;13.98;7.53;;;;;;;;;;5010434;28;20045;-75
2022/03/12 03:58:34;;;;;;;13.25;7.05;;;;;;;;;;4993858;28;20044;-76
2022/03/12 04:01:01;;;;;;;12.85;7.63;;;;;;;;;;5007712;28;20053;-75
2022/03/12 04:03:34;;;;;;;13.60;8.05;;;;;;;;;;5028000;28;20470;-75
2022/03/12 04:06:01;;;;;;;11.68;6.82;;;;;;;;;;4991642;28;20052;-75
2022/03/12 04:08:28;;;;;;;11.57;7.03;;;;;;;;;;5010042;28;20137;-76
2022/03/12 04:10:54;;;;;;;13.93;7.38;;;;;;;;;;5010273;28;20045;-75
2022/03/12 04:13:21;;;;;;;13.07;7.22;;;;;;;;;;5009250;28;20044;-75
2022/03/12 04:15:47;;;;;;;13.52;7.30;;;;;;;;;;5010262;28;20558;-77
2022/03/12 04:18:15;;;;;;;12.95;7.07;;;;;;;;;;5010240;28;20368;-76
2022/03/12 04:20:43;;;;;;;16.95;7.60;;;;;;;;;;5010161;28;20037;-77
2022/03/12 04:23:11;;;;;;;17.63;7.70;;;;;;;;;;4993455;28;20037;-76
2022/03/12 04:25:37;;;;;;;13.35;6.95;;;;;;;;;;5009858;28;20399;-76
2022/03/12 04:28:03;;;;;;;13.10;7.47;;;;;;;;;;5009782;28;20034;-76
2022/03/12 04:30:29;;;;;;;14.55;7.88;;;;;;;;;;5027702;28;20475;-75
2022/03/12 04:32:56;;;;;;;15.07;7.70;;;;;;;;;;5027700;28;20065;-76
2022/03/12 04:35:22;;;;;;;14.38;7.22;;;;;;;;;;5009641;28;20486;-76
2022/03/12 04:37:48;;;;;;;12.98;7.22;;;;;;;;;;4993276;28;20037;-75
2022/03/12 04:40:21;;;;;;;12.43;7.13;;;;;;;;;;5026152;28;20056;-76
2022/03/12 04:42:47;;;;;;;15.65;8.10;;;;;;;;;;5009918;28;20037;-76
2022/03/12 04:45:14;;;;;;;16.70;8.18;;;;;;;;;;5009352;28;20045;-75
2022/03/12 04:47:44;;;;;;;13.57;7.20;;;;;;;;;;4992937;28;20046;-76
2022/03/12 04:50:12;;;;;;;14.10;7.50;;;;;;;;;;4993186;28;20133;-76
2022/03/12 04:52:40;;;;;;;14.82;7.82;;;;;;;;;;5020385;28;20037;-76
2022/03/12 04:55:07;;;;;;;13.85;7.25;;;;;;;;;;5009859;28;20073;-76
2022/03/12 04:57:34;;;;;;;14.27;7.63;;;;;;;;;;5009386;28;20037;-76
2022/03/12 05:00:03;;;;;;;13.57;7.63;;;;;;;;;;5009478;28;20042;-76
2022/03/12 05:02:29;;;;;;;14.65;7.63;;;;;;;;;;5019810;28;20079;-75
2022/03/12 05:04:55;;;;;;;13.77;7.80;;;;;;;;;;5008796;28;20124;-75
2022/03/12 05:07:23;;;;;;;18.77;8.35;;;;;;;;;;5008746;28;20087;-75
2022/03/12 05:09:50;;;;;;;12.68;7.50;;;;;;;;;;5009210;28;20045;-75
2022/03/12 05:12:17;;;;;;;13.63;7.38;;;;;;;;;;5009446;28;20041;-75
2022/03/12 05:14:48;;;;;;;14.48;7.78;;;;;;;;;;5026609;28;20090;-74
2022/03/12 05:17:16;;;;;;;11.90;6.90;;;;;;;;;;5009665;28;20045;-74
2022/03/12 05:19:42;;;;;;;13.57;7.50;;;;;;;;;;5009963;28;20041;-74
2022/03/12 05:22:08;;;;;;;15.10;7.72;;;;;;;;;;5009368;28;20042;-75
2022/03/12 05:24:35;;;;;;;13.52;7.80;;;;;;;;;;5009313;28;20048;-76
2022/03/12 05:27:02;;;;;;;15.20;7.55;;;;;;;;;;5002934;28;20041;-75
2022/03/12 05:29:30;;;;;;;15.30;7.75;;;;;;;;;;5008455;28;20395;-75
2022/03/12 05:31:56;;;;;;;13.73;7.75;;;;;;;;;;5009436;28;20480;-75
2022/03/12 05:34:23;;;;;;;14.40;7.90;;;;;;;;;;5025915;28;20033;-75
2022/03/12 05:36:49;;;;;;;14.30;7.15;;;;;;;;;;5008646;28;20079;-75
2022/03/12 05:39:15;;;;;;;12.70;7.35;;;;;;;;;;5026241;28;20064;-76
2022/03/12 05:41:44;;;;;;;14.60;7.70;;;;;;;;;;5025839;28;20118;-75
2022/03/12 05:44:13;;;;;;;15.50;7.57;;;;;;;;;;5008800;28;20041;-76
2022/03/12 05:46:40;;;;;;;15.25;7.95;;;;;;;;;;5008228;28;20398;-77
2022/03/12 05:49:06;;;;;;;13.20;7.60;;;;;;;;;;5008935;28;20038;-76
2022/03/12 05:51:32;;;;;;;13.07;7.65;;;;;;;;;;5010508;28;20034;-76
2022/03/12 05:53:59;;;;;;;15.40;7.90;;;;;;;;;;4996273;28;20090;-77
2022/03/12 05:56:25;;;;;;;14.10;7.75;;;;;;;;;;4995651;28;20040;-76
2022/03/12 05:58:51;;;;;;;14.50;7.40;;;;;;;;;;5012118;28;20081;-77
2022/03/12 06:01:17;;;;;;;15.10;7.90;;;;;;;;;;5012228;28;20058;-77
2022/03/12 06:03:43;;;;;;;15.88;7.82;;;;;;;;;;5029988;28;20041;-75
2022/03/12 06:06:09;;;;;;;17.17;8.30;;;;;;;;;;5030005;28;20473;-77
2022/03/12 06:08:35;;;;;;;14.48;7.97;;;;;;;;;;5012440;28;20053;-75
2022/03/12 06:11:02;;;;;;;14.95;7.90;;;;;;;;;;5012367;28;20048;-76
2022/03/12 06:13:28;;;;;;;16.88;8.98;;;;;;;;;;5029361;28;20065;-76
2022/03/12 06:15:58;;;;;;;15.15;8.55;;;;;;;;;;5012523;28;20376;-76
2022/03/12 06:18:32;;;;;;;13.85;8.18;;;;;;;;;;5011481;28;20541;-76
2022/03/12 06:20:59;;;;;;;14.00;8.30;;;;;;;;;;5012048;28;20102;-76
2022/03/12 06:23:25;;;;;;;14.10;8.50;;;;;;;;;;5029547;28;20180;-77
2022/03/12 06:25:52;;;;;;;18.15;8.50;;;;;;;;;;4995890;28;20402;-77
2022/03/12 06:28:19;;;;;;;18.50;8.23;;;;;;;;;;5011600;28;20079;-77
2022/03/12 06:30:47;;;;;;;13.43;8.05;;;;;;;;;;5011759;28;20041;-77
2022/03/12 06:33:15;;;;;;;15.32;7.78;;;;;;;;;;5012035;28;20041;-77
2022/03/12 06:35:42;;;;;;;13.73;8.05;;;;;;;;;;5011706;28;20037;-77
2022/03/12 06:38:10;;;;;;;20.85;8.80;;;;;;;;;;5012006;28;20041;-76
2022/03/12 06:40:37;;;;;;;13.93;8.68;;;;;;;;;;5011371;28;20101;-76
2022/03/12 06:43:09;;;;;;;15.82;8.85;;;;;;;;;;5011774;28;20040;-76
2022/03/12 06:45:36;;;;;;;13.48;8.00;;;;;;;;;;4997566;28;20143;-77
2022/03/12 06:48:02;;;;;;;15.23;8.15;;;;;;;;;;4988950;28;20058;-78
2022/03/12 06:50:29;;;;;;;13.30;8.43;;;;;;;;;;4989797;28;20081;-77
2022/03/12 06:52:56;;;;;;;15.10;8.20;;;;;;;;;;4990453;28;20035;-78
2022/03/12 06:55:24;;;;;;;17.13;8.65;;;;;;;;;;4988631;28;20121;-77
2022/03/12 06:57:52;;;;;;;14.68;8.43;;;;;;;;;;4988617;28;20055;-78
2022/03/12 07:00:22;;;;;;;17.08;8.55;;;;;;;;;;4989519;28;20065;-77
2022/03/12 07:02:48;;;;;;;15.07;9.00;;;;;;;;;;4988006;28;20042;-76
2022/03/12 07:05:15;;;;;;;13.15;8.25;;;;;;;;;;4988414;28;20030;-76
2022/03/12 07:07:41;;;;;;;14.48;9.20;;;;;;;;;;4972170;28;20035;-75
2022/03/12 07:10:08;;;;;;;15.77;9.23;;;;;;;;;;4989706;28;20125;-77
2022/03/12 07:12:35;;;;;;;15.50;8.63;;;;;;;;;;4988636;28;20491;-77
2022/03/12 07:15:01;;;;;;;15.45;9.18;;;;;;;;;;4987442;28;20038;-76
2022/03/12 07:17:27;;;;;;;15.23;9.20;;;;;;;;;;4987810;28;20095;-78
2022/03/12 07:19:54;;;;;;;16.45;8.88;;;;;;;;;;4972896;28;20050;-77
2022/03/12 07:22:20;;;;;;;14.70;8.68;;;;;;;;;;4971749;28;20034;-76
2022/03/12 07:24:46;;;;;;;11.98;8.30;;;;;;;;;;4988760;28;20431;-77
2022/03/12 07:27:12;;;;;;;14.18;8.43;;;;;;;;;;4972599;28;20041;-77
2022/03/12 07:29:38;;;;;;;16.98;9.20;;;;;;;;;;4988631;28;20437;-77
2022/03/12 07:32:04;;;;;;;16.50;9.02;;;;;;;;;;4988329;28;20038;-77
2022/03/12 07:34:31;;;;;;;15.73;8.82;;;;;;;;;;4987670;28;20050;-75
2022/03/12 07:36:57;;;;;;;15.48;9.40;;;;;;;;;;4971230;28;20054;-76
2022/03/12 07:39:23;;;;;;;15.15;8.75;;;;;;;;;;4987154;28;20057;-77
2022/03/12 07:41:49;;;;;;;15.57;9.20;;;;;;;;;;4956058;28;20495;-75
2022/03/12 07:44:15;;;;;;;17.05;9.45;;;;;;;;;;4988243;28;20053;-78
2022/03/12 07:46:41;;;;;;;16.77;9.55;;;;;;;;;;4987116;28;20046;-75
2022/03/12 07:49:07;;;;;;;18.25;9.38;;;;;;;;;;4987734;28;20126;-75
2022/03/12 07:51:34;;;;;;;15.65;8.88;;;;;;;;;;4987398;28;20034;-75
2022/03/12 07:54:01;;;;;;;15.93;9.27;;;;;;;;;;4987961;28;20064;-75
2022/03/12 07:56:27;;;;;;;17.58;9.82;;;;;;;;;;4988429;28;20554;-77
2022/03/12 07:58:55;;;;;;;14.60;8.50;;;;;;;;;;4988100;28;20492;-75
2022/03/12 08:01:21;;;;;;;17.10;9.30;;;;;;;;;;4987737;28;20419;-75
2022/03/12 08:03:48;;;;;;;16.92;9.52;;;;;;;;;;4987717;28;20085;-74
2022/03/12 08:06:18;;;;;;;15.13;9.02;;;;;;;;;;4988880;28;20038;-76
2022/03/12 08:08:44;;;;;;;18.95;9.40;;;;;;;;;;4988023;28;20038;-75
2022/03/12 08:11:28;;;;;;;15.07;9.45;;;;;;;;;;4987417;28;20053;-78
2022/03/12 08:14:07;;;;;;;16.08;9.27;;;;;;;;;;4986709;28;20043;-77
2022/03/12 08:16:34;;;;;;;15.68;8.88;;;;;;;;;;4987306;28;20569;-76
2022/03/12 08:19:00;;;;;;;15.82;9.13;;;;;;;;;;4987331;28;20077;-77
2022/03/12 08:21:26;;;;;;;14.15;8.88;;;;;;;;;;4987318;28;20048;-77
2022/03/12 08:23:52;;;;;;;16.90;9.27;;;;;;;;;;4971599;28;20376;-77
2022/03/12 08:26:19;;;;;;;15.02;9.00;;;;;;;;;;4986887;28;20053;-77
2022/03/12 08:28:46;;;;;;;18.73;9.25;;;;;;;;;;4987864;28;20042;-77
2022/03/12 08:31:13;;;;;;;14.80;8.60;;;;;;;;;;4988565;28;20042;-77
2022/03/12 08:33:39;;;;;;;13.43;8.73;;;;;;;;;;4988168;28;20473;-77
2022/03/12 08:36:06;;;;;;;16.42;9.38;;;;;;;;;;4987147;28;20042;-77
2022/03/12 08:38:34;;;;;;;13.88;9.30;;;;;;;;;;4987279;28;20510;-77
2022/03/12 08:41:01;;;;;;;14.82;9.27;;;;;;;;;;4988426;28;20368;-77
2022/03/12 08:43:27;;;;;;;15.75;9.18;;;;;;;;;;4988167;28;20050;-77
2022/03/12 08:45:53;;;;;;;14.02;9.18;;;;;;;;;;5012963;28;20128;-78
2022/03/12 08:48:19;;;;;;;15.02;8.93;;;;;;;;;;5009394;28;20046;-77
2022/03/12 08:50:47;;;;;;;15.90;9.13;;;;;;;;;;5009890;28;20037;-77
2022/03/12 08:53:15;;;;;;;14.77;9.20;;;;;;;;;;5009943;28;20045;-77
2022/03/12 08:55:42;;;;;;;13.25;9.25;;;;;;;;;;5027067;28;20052;-77
2022/03/12 08:58:08;;;;;;;14.13;8.85;;;;;;;;;;5009471;28;20052;-77
2022/03/12 09:00:34;;;;;;;11.73;8.75;;;;;;;;;;5008993;28;20038;-78
2022/03/12 09:03:01;;;;;;;15.02;9.07;;;;;;;;;;5009934;28;20037;-77
2022/03/12 09:05:27;;;;;;;13.43;8.68;;;;;;;;;;5009281;28;20045;-78
2022/03/12 09:07:53;;;;;;;14.85;9.27;;;;;;;;;;5009373;28;20051;-78
2022/03/12 09:10:21;;;;;;;12.30;8.00;;;;;;;;;;5009350;28;20053;-77
2022/03/12 09:12:48;;;;;;;13.77;8.35;;;;;;;;;;5009368;28;20049;-78
2022/03/12 09:15:14;;;;;;;13.13;8.43;;;;;;;;;;5009550;28;20042;-78
2022/03/12 09:17:41;;;;;;;11.88;8.95;;;;;;;;;;5008770;28;20049;-77
2022/03/12 09:20:08;;;;;;;11.52;8.27;;;;;;;;;;5009116;28;20041;-77
2022/03/12 09:22:34;;;;;;;13.32;8.80;;;;;;;;;;4992749;28;20048;-76
2022/03/12 09:25:02;;;;;;;14.30;8.13;;;;;;;;;;5009517;28;20056;-76
2022/03/12 09:27:28;;;;;;;12.98;8.18;;;;;;;;;;5008300;28;20383;-76
2022/03/12 09:29:54;;;;;;;11.93;8.65;;;;;;;;;;5009470;28;20047;-77
2022/03/12 09:32:20;;;;;;;12.13;8.20;;;;;;;;;;5009516;28;20390;-77
2022/03/12 09:34:47;;;;;;;11.48;7.20;;;;;;;;;;5008887;28;20131;-77
2022/03/12 09:37:13;;;;;;;11.60;8.27;;;;;;;;;;5026957;28;20116;-78
2022/03/12 09:39:39;;;;;;;15.95;8.77;;;;;;;;;;4992697;28;20513;-77
2022/03/12 09:42:05;;;;;;;12.60;8.10;;;;;;;;;;5026587;28;20037;-78
2022/03/12 09:44:31;;;;;;;10.98;8.23;;;;;;;;;;5008578;28;20076;-78
2022/03/12 09:46:58;;;;;;;10.95;7.43;;;;;;;;;;5008678;28;20111;-77
2022/03/12 09:49:24;;;;;;;12.82;7.78;;;;;;;;;;5008696;28;20045;-77
2022/03/12 09:51:51;;;;;;;12.75;7.18;;;;;;;;;;5061191;28;20494;-78
2022/03/12 09:54:18;;;;;;;10.68;7.63;;;;;;;;;;4992759;28;20041;-77
2022/03/12 09:56:44;;;;;;;12.15;7.80;;;;;;;;;;5008519;28;20114;-77
2022/03/12 09:59:10;;;;;;;11.55;8.07;;;;;;;;;;5026351;28;20125;-77
2022/03/12 10:01:36;;;;;;;11.50;7.63;;;;;;;;;;5008766;28;20129;-77
2022/03/12 10:04:03;;;;;;;12.90;7.93;;;;;;;;;;5026229;28;20098;-78
2022/03/12 10:06:31;;;;;;;12.60;8.38;;;;;;;;;;4992367;28;20797;-75
2022/03/12 10:08:57;;;;;;;10.45;7.60;;;;;;;;;;5027070;28;20125;-76
2022/03/12 10:11:24;;;;;;;11.30;7.28;;;;;;;;;;5008616;28;20044;-77
2022/03/12 10:13:50;;;;;;;10.85;7.50;;;;;;;;;;5009131;28;20042;-76
2022/03/12 10:16:18;;;;;;;12.07;7.40;;;;;;;;;;4992742;28;20401;-76
2022/03/12 10:18:45;;;;;;;10.50;7.43;;;;;;;;;;4990645;28;20065;-76
2022/03/12 10:21:11;;;;;;;10.43;7.32;;;;;;;;;;5008298;28;20056;-76
2022/03/12 10:23:37;;;;;;;9.98;7.28;;;;;;;;;;5008151;28;20497;-76
2022/03/12 10:26:03;;;;;;;10.80;7.93;;;;;;;;;;5008191;28;20041;-76
2022/03/12 10:28:34;;;;;;;13.32;7.32;;;;;;;;;;5007863;28;20116;-76
2022/03/12 10:31:05;;;;;;;12.00;7.18;;;;;;;;;;4993017;28;20038;-76
2022/03/12 10:33:33;;;;;;;9.50;7.05;;;;;;;;;;5007722;28;20101;-75
2022/03/12 10:36:10;;;;;;;10.30;6.20;;;;;;;;;;5026116;28;20048;-76
2022/03/12 10:38:43;;;;;;;10.05;6.90;;;;;;;;;;5009765;28;20041;-76
2022/03/12 10:41:10;;;;;;;8.48;6.40;;;;;;;;;;5012169;28;20573;-76
2022/03/12 10:43:54;;;;;;;10.55;6.28;;;;;;;;;;4994802;28;20037;-77
2022/03/12 10:46:24;;;;;;;9.50;6.32;;;;;;;;;;5029087;28;20058;-76
2022/03/12 10:48:56;;;;;;;9.63;6.10;;;;;;;;;;5027070;28;20057;-76
2022/03/12 10:51:25;;;;;;;10.38;6.32;;;;;;;;;;5028764;28;20041;-75
2022/03/12 10:53:51;;;;;;;8.23;5.35;;;;;;;;;;5011493;28;20049;-76
2022/03/12 10:56:19;;;;;;;11.73;6.38;;;;;;;;;;5011694;28;20064;-76
2022/03/12 10:58:45;;;;;;;10.65;6.15;;;;;;;;;;5011078;28;20107;-76
2022/03/12 11:01:11;;;;;;;13.82;7.18;;;;;;;;;;5011829;28;20415;-76
2022/03/12 11:03:38;;;;;;;9.80;7.40;;;;;;;;;;4994878;28;20065;-76
2022/03/12 11:06:05;;;;;;;10.70;7.28;;;;;;;;;;5011063;28;20086;-76
2022/03/12 11:08:32;;;;;;;9.40;7.05;;;;;;;;;;5028324;28;20045;-76
2022/03/12 11:10:59;;;;;;;11.65;6.68;;;;;;;;;;4994964;28;20034;-75
2022/03/12 11:13:27;;;;;;;12.50;7.40;;;;;;;;;;5011345;28;20175;-75
2022/03/12 11:16:20;;;;;;;9.52;7.43;;;;;;;;;;5011384;28;20041;-76
2022/03/12 11:19:07;;;;;;;10.32;7.20;;;;;;;;;;5008107;28;20124;-76
2022/03/12 11:21:39;;;;;;;12.98;7.72;;;;;;;;;;5011119;28;20536;-75
2022/03/12 11:24:06;;;;;;;10.63;7.03;;;;;;;;;;5112640;27;20084;-75
2022/03/12 11:26:43;;;;;;;12.23;6.50;;;;;;;;;;5010791;28;20422;-75
2022/03/12 11:29:10;;;;;;;11.13;7.20;;;;;;;;;;5028764;28;20033;-74
2022/03/12 11:31:44;;;;;;;12.95;7.13;;;;;;;;;;5010760;28;20042;-75
2022/03/12 11:34:32;;;;;;;9.95;6.75;;;;;;;;;;5028684;28;20546;-76
2022/03/12 11:36:58;;;;;;;11.93;6.40;;;;;;;;;;4993113;28;20041;-76
2022/03/12 11:39:29;;;;;;;11.07;6.82;;;;;;;;;;5010797;28;20092;-75
2022/03/12 11:42:03;;;;;;;10.00;6.63;;;;;;;;;;5010907;28;20049;-74
2022/03/12 11:44:30;;;;;;;11.02;6.75;;;;;;;;;;5010767;28;20073;-75
2022/03/12 11:46:56;;;;;;;11.10;7.03;;;;;;;;;;5028220;28;20037;-75
2022/03/12 11:49:24;;;;;;;10.77;6.85;;;;;;;;;;5009951;28;20130;-73
2022/03/12 11:51:52;;;;;;;7.95;6.05;;;;;;;;;;5010521;28;20508;-74
2022/03/12 11:54:18;;;;;;;11.25;6.60;;;;;;;;;;5028171;28;20069;-74
2022/03/12 11:56:44;;;;;;;9.48;6.78;;;;;;;;;;5028295;28;20044;-74
2022/03/12 11:59:10;;;;;;;12.98;7.28;;;;;;;;;;5028386;28;20045;-75
2022/03/12 12:01:37;;;;;;;10.07;7.18;;;;;;;;;;5027871;28;20104;-76
2022/03/12 12:04:04;;;;;;;10.90;6.95;;;;;;;;;;5010388;28;20044;-76
2022/03/12 12:06:30;;;;;;;11.50;7.78;;;;;;;;;;5010144;28;20508;-76
2022/03/12 12:08:57;;;;;;;13.55;7.28;;;;;;;;;;4993625;28;20052;-75
2022/03/12 12:11:23;;;;;;;10.88;7.32;;;;;;;;;;5027535;28;20097;-75
2022/03/12 12:13:49;;;;;;;10.52;6.88;;;;;;;;;;5027519;28;20529;-75
2022/03/12 12:16:18;;;;;;;12.93;6.85;;;;;;;;;;4994206;28;20102;-76
2022/03/12 12:18:45;;;;;;;10.85;6.90;;;;;;;;;;5010247;28;20049;-75
2022/03/12 12:21:17;;;;;;;11.55;7.43;;;;;;;;;;5027899;28;20045;-75
2022/03/12 12:23:43;;;;;;;12.02;7.13;;;;;;;;;;5027544;28;20094;-75
2022/03/12 12:26:10;;;;;;;11.23;6.60;;;;;;;;;;5027850;28;20509;-75
2022/03/12 12:29:05;;;;;;;11.60;7.43;;;;;;;;;;5010117;28;20041;-76
2022/03/12 12:31:32;;;;;;;10.90;6.68;;;;;;;;;;4988981;28;20042;-76
2022/03/12 12:34:00;;;;;;;10.63;6.15;;;;;;;;;;5010466;28;20125;-77
2022/03/12 12:36:26;;;;;;;10.13;6.72;;;;;;;;;;5037091;28;20053;-75
2022/03/12 12:39:01;;;;;;;11.45;6.93;;;;;;;;;;5010042;28;20406;-75
2022/03/12 12:41:47;;;;;;;10.02;6.63;;;;;;;;;;5009605;28;20441;-76
2022/03/12 12:44:13;;;;;;;11.70;7.20;;;;;;;;;;5006928;28;20455;-75
2022/03/12 12:46:40;;;;;;;12.05;6.72;;;;;;;;;;5061631;28;20049;-75
2022/03/12 12:49:07;;;;;;;10.98;6.57;;;;;;;;;;4993563;28;20256;-74
2022/03/12 12:51:48;;;;;;;13.05;6.70;;;;;;;;;;5019949;28;20042;-76
2022/03/12 12:54:14;;;;;;;11.32;6.43;;;;;;;;;;5010058;28;20037;-76
2022/03/12 12:56:40;;;;;;;11.18;6.88;;;;;;;;;;5009890;28;20064;-76
2022/03/12 12:59:13;;;;;;;14.40;6.65;;;;;;;;;;5009413;28;20145;-76
2022/03/12 13:01:39;;;;;;;10.27;6.22;;;;;;;;;;5026296;28;20124;-75
2022/03/12 13:04:06;;;;;;;10.80;5.95;;;;;;;;;;5009590;28;20049;-75
2022/03/12 13:06:45;;;;;;;9.52;6.00;;;;;;;;;;4990809;28;20033;-74
2022/03/12 13:09:22;;;;;;;11.27;6.25;;;;;;;;;;4993451;28;20496;-75
2022/03/12 13:11:51;;;;;;;9.18;5.40;;;;;;;;;;5027170;28;20045;-73
2022/03/12 13:14:24;;;;;;;9.80;6.03;;;;;;;;;;5009648;28;20097;-77
2022/03/12 13:16:55;;;;;;;9.68;5.88;;;;;;;;;;5009739;28;20536;-75
2022/03/12 13:19:30;;;;;;;8.65;5.63;;;;;;;;;;4992763;28;20094;-73
2022/03/12 13:22:07;;;;;;;9.00;5.80;;;;;;;;;;5009473;28;20280;-76
2022/03/12 13:24:44;;;;;;;9.60;6.03;;;;;;;;;;5008634;28;20041;-76
2022/03/12 13:27:16;;;;;;;9.88;5.90;;;;;;;;;;5027105;28;20558;-75
2022/03/12 13:29:42;;;;;;;8.32;5.63;;;;;;;;;;5008787;28;20068;-75
2022/03/12 13:32:17;;;;;;;10.48;5.63;;;;;;;;;;4993195;28;20029;-74
2022/03/12 13:34:43;;;;;;;11.07;6.50;;;;;;;;;;5008526;28;20093;-74
2022/03/12 13:37:12;;;;;;;9.25;5.70;;;;;;;;;;5027041;28;20237;-74
2022/03/12 13:39:38;;;;;;;10.68;5.28;;;;;;;;;;5008765;28;20063;-76
2022/03/12 13:42:04;;;;;;;13.15;7.68;;;;;;;;;;5009354;28;20094;-74
2022/03/12 13:44:30;;;;;;;14.15;8.45;;;;;;;;;;5026447;28;20033;-76
2022/03/12 13:46:56;;;;;;;10.10;6.00;;;;;;;;;;5057972;28;20083;-76
2022/03/12 13:49:23;;;;;;;10.77;5.90;;;;;;;;;;5079429;28;20047;-75
2022/03/12 13:51:53;;;;;;;7.95;5.28;;;;;;;;;;5086009;28;20375;-75
2022/03/12 13:54:20;;;;;;;8.95;5.65;;;;;;;;;;5083902;28;20052;-76
2022/03/12 13:56:47;;;;;;;11.43;5.40;;;;;;;;;;5085529;28;20120;-76
2022/03/12 13:59:21;;;;;;;9.60;5.50;;;;;;;;;;5083844;28;20048;-77
2022/03/12 14:01:49;;;;;;;7.97;5.15;;;;;;;;;;5071315;28;20048;-80
2022/03/12 14:04:26;;;;;;;8.20;5.03;;;;;;;;;;5075134;28;20393;-75
2022/03/12 14:06:52;;;;;;;10.75;5.57;;;;;;;;;;5072932;28;20037;-74
2022/03/12 14:09:21;;;;;;;9.27;5.20;;;;;;;;;;5080821;28;20543;-75
2022/03/12 14:11:48;;;;;;;10.25;5.78;;;;;;;;;;5086309;28;20054;-76
2022/03/12 14:14:15;;;;;;;8.63;5.35;;;;;;;;;;5073415;28;20029;-76
2022/03/12 14:16:46;;;;;;;7.63;4.97;;;;;;;;;;5078382;28;20494;-76
2022/03/12 14:19:17;;;;;;;8.05;4.97;;;;;;;;;;5090086;28;20433;-76
2022/03/12 14:21:48;;;;;;;8.23;4.93;;;;;;;;;;5087674;28;20501;-75
2022/03/12 14:24:16;;;;;;;9.60;5.25;;;;;;;;;;5090845;28;20050;-75
2022/03/12 14:26:43;;;;;;;10.80;5.55;;;;;;;;;;5085143;28;20037;-76
2022/03/12 14:29:09;;;;;;;11.15;5.25;;;;;;;;;;5086507;28;20032;-76
2022/03/12 14:31:37;;;;;;;10.55;5.50;;;;;;;;;;5091151;28;20070;-77
2022/03/12 14:34:04;;;;;;;7.38;5.03;;;;;;;;;;5083543;28;20516;-76
2022/03/12 14:36:32;;;;;;;10.40;4.90;;;;;;;;;;5077944;28;20044;-77